Time;durP1;ratioP1;P1;durP2;ratioP2;P2;SDS_P1;SDS_P2;PMS_P1;PMS_P2;Temp;Humidity;BMP_temperature;BMP_pressure;BME280_temperature;BME280_humidity;BME280_pressure;Samples;Min_cycle;Max_cycle;Signal;HPM_P1;HPM_P2
2022/09/11 08:01:42;;;;;;;19.43;17.57;;;;;;;14.60;100.00;101808.28;5332779;27;1190589;-71
2022/09/11 08:04:14;;;;;;;20.45;18.48;;;;;;;14.63;100.00;101811.34;5345231;27;20289;-74
2022/09/11 08:06:48;;;;;;;23.00;20.67;;;;;;;14.65;100.00;101819.41;5327283;28;20049;-75
2022/09/11 08:09:19;;;;;;;22.25;20.15;;;;;;;14.74;100.00;101812.91;5341660;28;20039;-75
2022/09/11 08:11:54;;;;;;;24.15;21.73;;;;;;;14.79;100.00;101810.06;5345040;28;20023;-74
2022/09/11 08:14:26;;;;;;;22.80;20.70;;;;;;;14.90;100.00;101812.75;5336852;27;20078;-74
2022/09/11 08:16:57;;;;;;;22.90;20.38;;;;;;;14.97;100.00;101816.03;5332322;28;20028;-75
2022/09/11 08:19:28;;;;;;;23.92;21.67;;;;;;;14.90;100.00;101819.16;5348404;28;20191;-75
2022/09/11 08:22:02;;;;;;;24.30;21.90;;;;;;;14.85;100.00;101815.59;5350723;28;20015;-74
2022/09/11 08:24:34;;;;;;;24.27;22.05;;;;;;;14.94;100.00;101820.25;5336457;27;20016;-74
2022/09/11 08:27:06;;;;;;;22.85;20.67;;;;;;;15.07;100.00;101827.09;5325220;28;20479;-73
2022/09/11 08:29:37;;;;;;;27.00;24.48;;;;;;;15.14;100.00;101833.16;5350454;28;20023;-74
2022/09/11 08:32:08;;;;;;;23.20;21.10;;;;;;;15.19;100.00;101829.47;5353380;28;20053;-74
2022/09/11 08:34:40;;;;;;;24.45;22.15;;;;;;;15.22;100.00;101840.88;5351421;28;20027;-73
2022/09/11 08:37:11;;;;;;;26.02;23.52;;;;;;;15.32;100.00;101839.13;5341482;28;20024;-73
2022/09/11 08:39:42;;;;;;;25.15;22.80;;;;;;;15.44;100.00;101836.72;5337075;27;20019;-74
2022/09/11 08:42:15;;;;;;;24.60;22.20;;;;;;;15.54;100.00;101830.16;5323157;28;20493;-74
2022/09/11 08:44:52;;;;;;;25.50;23.00;;;;;;;15.63;100.00;101833.97;5326466;28;20023;-73
2022/09/11 08:47:30;;;;;;;25.15;22.75;;;;;;;15.71;100.00;101835.28;5342908;27;20027;-72
2022/09/11 08:50:12;;;;;;;24.33;22.05;;;;;;;15.80;100.00;101839.09;5344606;27;20058;-73
2022/09/11 08:52:43;;;;;;;25.85;23.25;;;;;;;15.88;100.00;101838.41;5342068;27;20023;-73
2022/09/11 08:55:32;;;;;;;26.60;23.25;;;;;;;15.92;100.00;101842.25;5343763;28;20045;-74
2022/09/11 08:58:27;;;;;;;24.30;22.05;;;;;;;15.97;100.00;101832.97;5338193;27;20359;-73
2022/09/11 09:01:11;;;;;;;24.63;22.23;;;;;;;16.12;100.00;101843.09;5345192;27;20506;-73
2022/09/11 09:04:14;;;;;;;25.48;23.00;;;;;;;16.18;100.00;101839.06;5342522;27;20042;-73
2022/09/11 09:06:48;;;;;;;24.90;22.48;;;;;;;16.30;100.00;101842.25;5327674;27;20390;-74
2022/09/11 09:09:54;;;;;;;25.25;22.75;;;;;;;16.41;100.00;101837.31;5334365;28;20035;-73
2022/09/11 09:12:48;;;;;;;25.63;23.10;;;;;;;16.53;100.00;101834.88;5312848;28;20032;-74
2022/09/11 09:15:46;;;;;;;26.92;24.25;;;;;;;16.62;99.66;101843.41;5334133;28;20104;-71
2022/09/11 09:18:33;;;;;;;23.73;21.38;;;;;;;16.71;99.31;101844.34;5326071;28;20063;-72
2022/09/11 09:21:30;;;;;;;23.67;21.38;;;;;;;16.82;97.50;101847.84;5307483;28;20135;-73
2022/09/11 09:24:09;;;;;;;23.20;20.67;;;;;;;16.82;97.73;101854.28;5314645;28;20109;-72
2022/09/11 09:26:53;;;;;;;46.25;41.90;;;;;;;16.97;97.90;101855.13;5313815;28;20247;-69
2022/09/11 09:29:36;;;;;;;21.50;19.42;;;;;;;16.98;95.86;101854.00;5327255;28;20098;-69
2022/09/11 09:32:19;;;;;;;21.88;19.95;;;;;;;17.03;94.85;101849.13;5327513;28;20032;-73
2022/09/11 09:34:56;;;;;;;22.23;20.17;;;;;;;16.97;94.91;101844.75;5313697;28;20032;-72
2022/09/11 09:37:27;;;;;;;24.85;22.42;;;;;;;16.96;94.39;101851.50;5318147;28;20489;-72
2022/09/11 09:40:01;;;;;;;24.88;22.50;;;;;;;16.97;95.19;101849.53;5325967;28;20037;-73
2022/09/11 09:43:11;;;;;;;25.52;23.10;;;;;;;16.99;95.48;101852.88;5324579;28;20047;-75
2022/09/11 09:46:17;;;;;;;24.27;21.98;;;;;;;16.98;95.12;101852.03;5327133;28;20378;-74
2022/09/11 09:48:48;;;;;;;24.00;21.80;;;;;;;17.03;94.92;101854.75;5326721;28;20024;-73
2022/09/11 09:51:19;;;;;;;24.30;21.25;;;;;;;17.11;93.81;101856.00;5326877;27;20036;-74
2022/09/11 09:53:59;;;;;;;21.23;19.13;;;;;;;17.23;92.90;101855.47;5324140;28;20535;-75
2022/09/11 09:56:33;;;;;;;24.38;22.10;;;;;;;17.31;92.68;101858.41;5321856;28;20031;-74
2022/09/11 09:59:10;;;;;;;24.17;22.02;;;;;;;17.54;92.78;101850.09;5317336;28;20039;-73
2022/09/11 10:01:44;;;;;;;20.42;18.42;;;;;;;17.76;92.24;101844.53;5315540;28;20091;-75
2022/09/11 10:04:17;;;;;;;21.90;19.70;;;;;;;17.86;90.12;101853.91;5326382;27;20086;-75
2022/09/11 10:07:04;;;;;;;20.88;18.98;;;;;;;17.93;88.27;101848.72;5321398;28;20020;-74
2022/09/11 10:09:47;;;;;;;20.50;18.70;;;;;;;18.12;89.27;101857.78;5326437;28;20035;-72
2022/09/11 10:12:25;;;;;;;21.38;19.40;;;;;;;18.22;88.20;101851.94;5319829;28;20051;-73
2022/09/11 10:14:59;;;;;;;23.92;21.80;;;;;;;18.20;87.02;101854.25;5326542;28;20032;-74
2022/09/11 10:17:34;;;;;;;22.20;20.20;;;;;;;18.29;87.19;101857.13;5322749;28;20034;-71
2022/09/11 10:20:25;;;;;;;21.70;19.85;;;;;;;18.45;87.17;101854.75;5321223;28;20035;-72
2022/09/11 10:23:24;;;;;;;34.05;31.15;;;;;;;18.57;87.02;101857.84;5325540;28;20551;-72
2022/09/11 10:25:56;;;;;;;24.10;21.77;;;;;;;18.49;86.66;101854.97;5332349;27;20034;-72
2022/09/11 10:28:32;;;;;;;21.25;19.33;;;;;;;18.41;86.47;101848.97;5315291;28;20028;-72
2022/09/11 10:31:04;;;;;;;22.20;19.88;;;;;;;18.39;86.14;101851.25;5313688;28;20032;-73
2022/09/11 10:33:38;;;;;;;23.27;21.08;;;;;;;18.27;85.68;101848.19;5309971;28;20030;-72
2022/09/11 10:36:10;;;;;;;23.25;21.08;;;;;;;18.14;84.90;101855.50;5319456;28;20031;-73
2022/09/11 10:38:46;;;;;;;23.45;21.25;;;;;;;18.13;85.34;101853.03;5320891;28;20027;-73
2022/09/11 10:41:32;;;;;;;24.63;22.30;;;;;;;18.11;85.45;101853.34;5326401;28;20044;-73
2022/09/11 10:44:13;;;;;;;21.05;18.77;;;;;;;18.04;85.46;101847.31;5311270;28;20025;-70
2022/09/11 10:46:45;;;;;;;22.40;20.02;;;;;;;18.06;85.96;101853.47;5322980;28;20031;-72
2022/09/11 10:49:22;;;;;;;21.77;19.67;;;;;;;18.10;86.15;101848.88;5312329;28;20024;-73
2022/09/11 10:52:24;;;;;;;21.20;19.30;;;;;;;18.22;85.58;101857.56;5315595;28;20426;-71
2022/09/11 10:55:04;;;;;;;18.40;16.83;;;;;;;18.35;84.11;101855.84;5326233;28;20050;-73
2022/09/11 10:57:56;;;;;;;17.20;15.70;;;;;;;18.53;82.71;101855.97;5317002;28;20028;-72
2022/09/11 11:00:30;;;;;;;15.02;13.63;;;;;;;18.60;80.11;101854.38;5322349;28;20533;-73
2022/09/11 11:03:25;;;;;;;14.43;13.13;;;;;;;18.68;80.49;101847.97;5324880;28;20027;-74
2022/09/11 11:06:24;;;;;;;17.80;16.20;;;;;;;18.73;79.92;101852.66;5325884;28;20045;-74
2022/09/11 11:09:01;;;;;;;17.17;15.65;;;;;;;18.86;79.31;101842.50;5324617;28;20490;-71
2022/09/11 11:11:40;;;;;;;16.08;14.63;;;;;;;19.03;81.05;101848.22;5322193;28;20170;-73
2022/09/11 11:14:39;;;;;;;15.88;14.57;;;;;;;19.23;81.27;101852.47;5317395;28;20024;-72
2022/09/11 11:17:31;;;;;;;22.38;20.17;;;;;;;19.37;80.61;101857.97;5323575;28;20066;-73
2022/09/11 11:20:05;;;;;;;17.33;15.93;;;;;;;19.26;79.55;101850.97;5324970;28;20031;-73
2022/09/11 11:22:59;;;;;;;17.43;15.63;;;;;;;19.17;80.10;101859.38;5323165;28;20519;-73
2022/09/11 11:25:53;;;;;;;16.05;14.73;;;;;;;19.11;80.40;101855.03;5324493;28;20021;-73
2022/09/11 11:28:30;;;;;;;16.85;15.25;;;;;;;19.03;79.93;101853.84;5303996;28;20379;-73
2022/09/11 11:31:32;;;;;;;15.15;13.85;;;;;;;19.01;79.54;101844.09;5304294;28;20032;-72
2022/09/11 11:34:42;;;;;;;16.33;14.73;;;;;;;19.08;80.30;101850.91;5275788;28;20086;-72
2022/09/11 11:37:28;;;;;;;13.77;12.35;;;;;;;19.32;78.35;101855.28;5303668;28;20030;-73
2022/09/11 11:40:12;;;;;;;12.07;10.98;;;;;;;19.38;74.59;101856.84;5304015;28;20158;-73
2022/09/11 11:43:11;;;;;;;10.68;9.68;;;;;;;19.41;72.99;101847.72;5305431;28;20464;-71
2022/09/11 11:45:42;;;;;;;11.07;10.02;;;;;;;19.57;74.72;101845.28;5317137;28;20071;-71
2022/09/11 11:48:35;;;;;;;11.10;10.00;;;;;;;19.72;75.72;101841.22;5324659;28;20058;-71
2022/09/11 11:51:14;;;;;;;12.15;10.85;;;;;;;19.72;73.02;101839.25;5324370;28;20523;-73
2022/09/11 11:54:26;;;;;;;10.40;9.50;;;;;;;20.00;73.67;101835.31;5307653;28;20494;-72
2022/09/11 11:57:17;;;;;;;10.93;9.82;;;;;;;20.05;72.38;101821.06;5315089;28;20028;-72
2022/09/11 11:59:57;;;;;;;10.10;9.20;;;;;;;20.16;71.78;101825.19;5324278;28;20070;-72
2022/09/11 12:02:38;;;;;;;11.13;9.05;;;;;;;20.11;70.85;101822.56;5315854;28;20023;-72
2022/09/11 12:05:16;;;;;;;9.93;9.02;;;;;;;20.15;70.64;101818.75;5303112;28;20128;-71
2022/09/11 12:07:47;;;;;;;8.75;7.95;;;;;;;20.41;69.77;101824.34;5303626;28;20048;-72
2022/09/11 12:10:30;;;;;;;9.63;8.73;;;;;;;20.51;68.48;101822.38;5303633;28;20059;-72
2022/09/11 12:13:06;;;;;;;9.10;8.20;;;;;;;20.64;67.22;101821.38;5303347;28;20024;-73
2022/09/11 12:15:38;;;;;;;8.80;7.97;;;;;;;20.65;66.50;101825.03;5312975;28;20460;-73
2022/09/11 12:18:15;;;;;;;8.35;7.60;;;;;;;20.59;66.92;101828.00;5316161;28;20027;-74
2022/09/11 12:20:46;;;;;;;9.20;8.30;;;;;;;20.34;66.92;101814.75;5324762;28;20032;-73
2022/09/11 12:23:45;;;;;;;9.63;7.95;;;;;;;20.36;68.48;101816.09;5324431;28;20535;-73
2022/09/11 12:26:27;;;;;;;8.77;7.90;;;;;;;20.54;69.15;101819.75;5291287;28;20040;-74
2022/09/11 12:29:14;;;;;;;7.30;6.70;;;;;;;20.83;69.46;101807.72;5303293;28;20024;-73
2022/09/11 12:31:48;;;;;;;8.05;7.20;;;;;;;20.93;68.70;101802.88;5302581;28;20435;-73
2022/09/11 12:34:26;;;;;;;9.55;8.23;;;;;;;20.96;68.18;101807.84;5311121;28;20012;-73
2022/09/11 12:37:02;;;;;;;9.30;8.52;;;;;;;21.01;66.55;101802.88;5324231;28;20030;-73
2022/09/11 12:39:46;;;;;;;8.18;7.32;;;;;;;20.89;66.57;101797.09;5305444;28;20020;-73
2022/09/11 12:42:24;;;;;;;8.95;8.05;;;;;;;20.78;67.34;101799.44;5303102;28;20036;-73
2022/09/11 12:44:57;;;;;;;8.10;7.40;;;;;;;20.62;67.68;101801.16;5303864;28;20032;-73
2022/09/11 12:47:35;;;;;;;9.23;8.32;;;;;;;20.59;68.21;101797.00;5304789;28;20436;-72
2022/09/11 12:50:09;;;;;;;7.43;6.75;;;;;;;20.53;68.05;101803.97;5311626;28;20024;-72
2022/09/11 12:52:44;;;;;;;7.20;6.50;;;;;;;20.49;67.27;101802.16;5327594;27;20482;-71
2022/09/11 12:55:38;;;;;;;7.78;7.10;;;;;;;20.42;67.50;101795.00;5328341;28;20383;-72
2022/09/11 12:58:19;;;;;;;7.28;6.68;;;;;;;20.40;67.87;101796.50;5327822;28;20042;-72
2022/09/11 13:01:01;;;;;;;7.57;6.60;;;;;;;20.37;68.03;101797.19;5317707;28;20059;-72
2022/09/11 13:03:34;;;;;;;7.10;6.05;;;;;;;20.34;67.87;101790.22;5306570;28;20020;-72
2022/09/11 13:06:08;;;;;;;18.70;17.15;;;;;;;20.38;66.98;101791.22;5306647;28;20024;-70
2022/09/11 13:08:58;;;;;;;12.10;10.88;;;;;;;20.64;65.57;101787.56;5308221;28;20116;-71
2022/09/11 13:11:40;;;;;;;7.35;6.63;;;;;;;20.98;64.96;101777.31;5305000;28;20044;-70
2022/09/11 13:14:27;;;;;;;4.32;4.03;;;;;;;21.24;63.49;101783.69;5309800;28;20390;-70
2022/09/11 13:17:00;;;;;;;5.75;3.80;;;;;;;21.25;58.69;101784.50;5309457;28;20028;-70
2022/09/11 13:19:36;;;;;;;4.68;3.90;;;;;;;21.35;58.82;101766.38;5306759;28;20492;-73
2022/09/11 13:22:26;;;;;;;7.47;3.70;;;;;;;21.64;60.67;101771.19;5305818;28;20062;-74
2022/09/11 13:25:21;;;;;;;5.10;3.65;;;;;;;21.89;60.01;101764.50;5307376;28;20089;-73
2022/09/11 13:28:00;;;;;;;4.30;3.90;;;;;;;22.09;59.16;101759.19;5318278;28;20110;-72
2022/09/11 13:30:32;;;;;;;3.90;3.60;;;;;;;22.16;58.06;101759.44;5327516;28;20027;-71
2022/09/11 13:33:18;;;;;;;6.25;4.13;;;;;;;22.45;57.14;101752.06;5327201;28;20077;-71
2022/09/11 13:35:50;;;;;;;4.75;4.35;;;;;;;22.45;56.54;101758.53;5308460;28;20032;-72
2022/09/11 13:38:40;;;;;;;5.43;4.07;;;;;;;22.53;56.80;101760.44;5306160;28;20081;-72
2022/09/11 13:41:15;;;;;;;5.28;4.82;;;;;;;22.27;56.50;101765.53;5306613;28;20036;-73
2022/09/11 13:43:51;;;;;;;4.45;3.50;;;;;;;22.33;57.22;101753.66;5325262;28;20068;-72
2022/09/11 13:46:24;;;;;;;4.38;3.97;;;;;;;22.40;56.58;101758.75;5327564;28;20019;-73
2022/09/11 13:49:18;;;;;;;4.40;3.95;;;;;;;22.26;57.66;101744.91;5326538;28;20024;-72
2022/09/11 13:51:49;;;;;;;3.50;3.20;;;;;;;21.99;59.42;101742.69;5327080;28;20034;-72
2022/09/11 13:54:29;;;;;;;6.70;5.22;;;;;;;21.79;59.64;101735.88;5327233;28;20470;-72
2022/09/11 13:57:01;;;;;;;5.53;4.60;;;;;;;21.59;58.92;101727.03;5326446;28;20023;-73
2022/09/11 13:59:47;;;;;;;6.32;4.50;;;;;;;21.58;61.07;101731.06;5326305;28;20034;-73
2022/09/11 14:02:33;;;;;;;7.07;4.50;;;;;;;21.36;60.97;101720.06;5327151;27;20535;-73
2022/09/11 14:05:30;;;;;;;6.03;3.88;;;;;;;21.25;62.17;101728.91;5326755;28;20120;-72
2022/09/11 14:08:03;;;;;;;4.25;3.70;;;;;;;21.18;63.16;101716.50;5323632;28;20335;-73
2022/09/11 14:10:40;;;;;;;5.43;4.82;;;;;;;21.21;63.43;101715.81;5305086;28;20058;-72
2022/09/11 14:13:32;;;;;;;5.07;4.30;;;;;;;21.12;62.38;101718.72;5305680;28;20061;-73
2022/09/11 14:16:12;;;;;;;5.60;4.35;;;;;;;21.09;62.52;101713.75;5316282;28;20031;-72
2022/09/11 14:18:47;;;;;;;5.60;5.00;;;;;;;21.11;62.13;101704.94;5326221;28;20100;-72
2022/09/11 14:21:31;;;;;;;7.25;5.45;;;;;;;21.10;63.17;101709.75;5326828;28;20035;-73
2022/09/11 14:24:23;;;;;;;5.50;5.00;;;;;;;21.14;62.00;101712.72;5325824;28;20039;-73
2022/09/11 14:27:29;;;;;;;6.35;5.80;;;;;;;21.38;63.06;101714.91;5307325;28;20285;-75
2022/09/11 14:30:00;;;;;;;6.53;4.88;;;;;;;21.51;62.31;101707.38;5305454;28;20024;-71
2022/09/11 14:32:37;;;;;;;6.15;5.20;;;;;;;21.57;61.59;101712.44;5305001;28;20348;-72
2022/09/11 14:35:10;;;;;;;5.85;3.95;;;;;;;21.73;62.76;101718.31;5305270;28;20028;-72
2022/09/11 14:37:48;;;;;;;8.50;6.53;;;;;;;21.89;60.66;101712.88;5304293;28;20019;-71
2022/09/11 14:40:20;;;;;;;5.63;5.13;;;;;;;21.99;59.88;101708.78;5305091;28;20081;-73
2022/09/11 14:42:51;;;;;;;4.88;4.38;;;;;;;21.76;59.99;101711.97;5305533;28;20024;-74
2022/09/11 14:45:24;;;;;;;5.72;5.07;;;;;;;21.69;60.84;101701.22;5304126;28;20028;-72
2022/09/11 14:47:58;;;;;;;6.72;4.88;;;;;;;21.59;61.17;101707.28;5305045;28;20103;-74
2022/09/11 14:50:31;;;;;;;6.03;4.75;;;;;;;21.41;59.83;101703.78;5313208;28;20107;-73
2022/09/11 14:53:02;;;;;;;5.60;5.05;;;;;;;21.41;60.00;101709.41;5325263;28;20028;-71
2022/09/11 14:55:34;;;;;;;4.68;4.28;;;;;;;21.32;59.78;101707.78;5325541;28;20024;-73
2022/09/11 14:58:07;;;;;;;5.22;4.82;;;;;;;21.24;61.34;101710.34;5325651;28;20110;-73
2022/09/11 15:00:39;;;;;;;5.10;4.60;;;;;;;21.17;61.57;101709.22;5324465;28;20567;-73
2022/09/11 15:03:11;;;;;;;7.13;4.53;;;;;;;21.16;60.82;101708.38;5326144;28;20481;-72
2022/09/11 15:05:46;;;;;;;5.25;3.97;;;;;;;21.16;60.76;101708.38;5313619;28;20032;-72
2022/09/11 15:08:17;;;;;;;;;;;;;;;21.32;61.94;101713.44;5319717;28;20153;-72
2022/09/11 15:10:49;;;;;;;8.43;4.70;;;;;;;21.18;60.63;101708.06;5325248;28;20377;-72
2022/09/11 15:13:21;;;;;;;4.80;4.30;;;;;;;21.16;60.93;101688.63;5324937;28;20016;-72
2022/09/11 15:15:52;;;;;;;5.20;4.70;;;;;;;21.23;60.12;101696.56;5316385;28;20024;-72
2022/09/11 15:18:24;;;;;;;5.03;3.97;;;;;;;21.21;60.69;101687.63;5304211;28;20012;-72
2022/09/11 15:20:55;;;;;;;7.18;3.70;;;;;;;21.29;61.62;101689.53;5303112;28;20034;-73
2022/09/11 15:23:27;;;;;;;7.38;4.40;;;;;;;21.35;61.67;101687.38;5304150;28;20430;-76
2022/09/11 15:26:01;;;;;;;5.95;4.03;;;;;;;21.39;60.21;101679.88;5324746;28;20028;-72
2022/09/11 15:28:35;;;;;;;8.03;3.53;;;;;;;21.38;61.70;101681.03;5324573;28;20043;-71
2022/09/11 15:31:07;;;;;;;5.05;3.30;;;;;;;21.40;61.56;101673.91;5325103;28;20459;-75
2022/09/11 15:33:38;;;;;;;11.93;4.75;;;;;;;21.48;61.30;101669.38;5316767;28;20140;-69
2022/09/11 15:36:13;;;;;;;5.57;3.33;;;;;;;21.59;60.36;101672.59;5303312;28;20024;-69
2022/09/11 15:38:53;;;;;;;5.80;3.70;;;;;;;21.52;59.78;101673.16;5321272;28;20039;-70
2022/09/11 15:41:26;;;;;;;3.70;3.15;;;;;;;21.49;60.31;101665.38;5317524;28;20063;-72
2022/09/11 15:43:58;;;;;;;4.65;3.75;;;;;;;21.58;60.24;101668.97;5304304;28;20024;-72
2022/09/11 15:46:30;;;;;;;3.15;2.85;;;;;;;21.58;59.76;101668.97;5304059;28;20230;-71
2022/09/11 15:49:05;;;;;;;4.70;4.05;;;;;;;21.56;59.13;101662.81;5303363;28;20024;-79
2022/09/11 15:51:37;;;;;;;;;;;;;;;21.63;59.62;101663.09;5320502;28;20019;-72
2022/09/11 15:54:09;;;;;;;3.92;3.53;;;;;;;21.67;60.29;101655.56;5322294;28;20346;-72
2022/09/11 15:56:42;;;;;;;8.27;6.13;;;;;;;21.66;60.37;101656.75;5324101;28;20397;-73
2022/09/11 15:59:17;;;;;;;3.90;3.50;;;;;;;21.68;60.63;101657.25;5324715;28;20019;-71
2022/09/11 16:01:48;;;;;;;3.88;3.47;;;;;;;21.59;60.88;101664.13;5324544;28;20150;-71
2022/09/11 16:04:21;;;;;;;3.80;3.45;;;;;;;21.54;60.42;101665.16;5324312;28;20458;-73
2022/09/11 16:06:54;;;;;;;5.07;4.20;;;;;;;21.59;59.12;101664.97;5322368;28;20031;-72
2022/09/11 16:09:28;;;;;;;4.78;3.53;;;;;;;21.70;59.50;101665.34;5303156;28;20021;-73
2022/09/11 16:12:00;;;;;;;5.32;3.83;;;;;;;21.63;59.76;101660.28;5311854;28;20034;-72
2022/09/11 16:14:34;;;;;;;4.60;4.22;;;;;;;21.59;59.98;101664.97;5324650;28;20027;-72
2022/09/11 16:17:06;;;;;;;3.83;3.42;;;;;;;21.53;60.42;101655.06;5323814;28;20106;-72
2022/09/11 16:19:38;;;;;;;5.60;4.20;;;;;;;21.54;60.49;101653.06;5303778;28;20482;-72
2022/09/11 16:22:09;;;;;;;4.32;3.97;;;;;;;21.50;60.07;101661.41;5305547;28;20035;-72
2022/09/11 16:24:41;;;;;;;5.20;4.70;;;;;;;21.56;59.94;101654.34;5315948;28;20097;-73
2022/09/11 16:27:14;;;;;;;5.30;3.97;;;;;;;21.48;60.43;101649.63;5329094;28;20026;-72
2022/09/11 16:29:45;;;;;;;5.55;4.18;;;;;;;21.41;60.30;101649.34;5328674;28;20095;-72
2022/09/11 16:32:26;;;;;;;5.28;4.68;;;;;;;21.41;60.51;101652.16;5328330;28;20084;-73
2022/09/11 16:34:58;;;;;;;4.57;4.18;;;;;;;21.41;60.21;101652.16;5328703;28;20031;-73
2022/09/11 16:37:33;;;;;;;4.28;3.88;;;;;;;21.35;61.17;101650.69;5327935;28;20027;-73
2022/09/11 16:40:05;;;;;;;4.13;3.72;;;;;;;21.39;61.64;101648.84;5328042;28;20027;-73
2022/09/11 16:42:36;;;;;;;5.30;4.72;;;;;;;21.33;61.46;101645.38;5312493;27;20024;-73
2022/09/11 16:45:08;;;;;;;5.10;4.00;;;;;;;21.36;61.00;101644.69;5306143;28;20039;-79
2022/09/11 16:47:39;;;;;;;5.90;3.92;;;;;;;21.27;61.79;101639.13;5317221;28;20084;-72
2022/09/11 16:50:12;;;;;;;4.85;3.90;;;;;;;21.26;61.33;101637.47;5321682;28;20016;-71
2022/09/11 16:52:43;;;;;;;4.05;3.70;;;;;;;21.20;61.92;101630.38;5306509;28;20059;-72
2022/09/11 16:55:14;;;;;;;7.07;5.10;;;;;;;21.16;61.73;101634.22;5314780;28;20043;-72
2022/09/11 16:57:46;;;;;;;3.72;3.42;;;;;;;21.13;62.89;101629.28;5310692;28;22080;-72
2022/09/11 17:00:21;;;;;;;5.97;4.43;;;;;;;21.08;60.98;101619.03;5310937;28;20043;-72
2022/09/11 17:02:52;;;;;;;4.65;4.18;;;;;;;21.04;60.73;101635.81;5321177;28;20028;-72
2022/09/11 17:05:24;;;;;;;4.32;3.92;;;;;;;21.02;61.26;101626.03;5319643;28;20027;-72
2022/09/11 17:07:55;;;;;;;4.72;4.28;;;;;;;21.00;61.52;101631.19;5325868;28;20038;-72
2022/09/11 17:10:26;;;;;;;3.97;3.67;;;;;;;20.95;61.65;101625.75;5328042;28;20477;-72
2022/09/11 17:13:01;;;;;;;4.75;4.28;;;;;;;20.95;62.80;101628.56;5307293;28;20371;-73
2022/09/11 17:15:33;;;;;;;4.45;4.03;;;;;;;20.94;62.04;101624.09;5312998;28;20035;-72
2022/09/11 17:18:05;;;;;;;4.55;4.15;;;;;;;20.90;62.58;101625.94;5309034;28;20383;-72
2022/09/11 17:20:38;;;;;;;6.57;4.40;;;;;;;20.90;63.46;101631.59;5311185;28;20073;-72
2022/09/11 17:23:12;;;;;;;7.10;5.28;;;;;;;20.85;62.86;101630.59;5312226;28;20028;-73
2022/09/11 17:25:44;;;;;;;4.82;4.40;;;;;;;20.86;63.72;101631.44;5314739;28;20043;-72
2022/09/11 17:28:19;;;;;;;6.05;5.10;;;;;;;20.84;63.83;101636.59;5322590;28;20020;-72
2022/09/11 17:30:56;;;;;;;6.05;5.45;;;;;;;20.76;63.94;101629.00;5310900;28;20043;-72
